sensor_id;sensor_type;location;lat;lon;timestamp;temperature;humidity
18131;DHT22;9191;54.324;10.126;2023-02-18T00:01:16;7.30;99.90
18131;DHT22;9191;54.324;10.126;2023-02-18T00:03:47;7.30;99.90
18131;DHT22;9191;54.324;10.126;2023-02-18T00:06:15;7.30;99.90
18131;DHT22;9191;54.324;10.126;2023-02-18T00:08:43;7.40;99.90
18131;DHT22;9191;54.324;10.126;2023-02-18T00:11:10;7.40;99.90
18131;DHT22;9191;54.324;10.126;2023-02-18T00:13:37;7.30;99.90
18131;DHT22;9191;54.324;10.126;2023-02-18T00:16:08;7.40;99.90
18131;DHT22;9191;54.324;10.126;2023-02-18T00:18:35;7.40;99.90
18131;DHT22;9191;54.324;10.126;2023-02-18T00:21:02;7.40;99.90
18131;DHT22;9191;54.324;10.126;2023-02-18T00:23:30;7.30;99.90
18131;DHT22;9191;54.324;10.126;2023-02-18T00:26:00;7.40;99.90
18131;DHT22;9191;54.324;10.126;2023-02-18T00:28:28;7.50;99.90
18131;DHT22;9191;54.324;10.126;2023-02-18T00:30:55;7.40;99.90
18131;DHT22;9191;54.324;10.126;2023-02-18T00:33:23;7.30;99.90
18131;DHT22;9191;54.324;10.126;2023-02-18T00:35:50;7.30;99.90
18131;DHT22;9191;54.324;10.126;2023-02-18T00:38:19;7.40;99.90
18131;DHT22;9191;54.324;10.126;2023-02-18T00:40:49;7.40;99.90
18131;DHT22;9191;54.324;10.126;2023-02-18T00:43:16;7.40;99.90
18131;DHT22;9191;54.324;10.126;2023-02-18T00:45:42;7.30;99.90
18131;DHT22;9191;54.324;10.126;2023-02-18T00:48:09;7.30;99.90
18131;DHT22;9191;54.324;10.126;2023-02-18T00:50:38;7.30;99.90
18131;DHT22;9191;54.324;10.126;2023-02-18T00:53:04;7.30;99.90
18131;DHT22;9191;54.324;10.126;2023-02-18T00:55:31;7.30;99.90
18131;DHT22;9191;54.324;10.126;2023-02-18T00:57:58;7.20;99.90
18131;DHT22;9191;54.324;10.126;2023-02-18T01:00:25;7.30;99.90
18131;DHT22;9191;54.324;10.126;2023-02-18T01:02:52;7.30;99.90
18131;DHT22;9191;54.324;10.126;2023-02-18T01:05:21;7.30;99.90
18131;DHT22;9191;54.324;10.126;2023-02-18T01:07:50;7.30;99.90
18131;DHT22;9191;54.324;10.126;2023-02-18T01:10:16;7.40;99.90
18131;DHT22;9191;54.324;10.126;2023-02-18T01:12:43;7.30;99.90
18131;DHT22;9191;54.324;10.126;2023-02-18T01:15:13;7.30;99.90
18131;DHT22;9191;54.324;10.126;2023-02-18T01:17:40;7.30;99.90
18131;DHT22;9191;54.324;10.126;2023-02-18T01:20:08;7.30;99.90
18131;DHT22;9191;54.324;10.126;2023-02-18T01:22:35;7.30;99.90
18131;DHT22;9191;54.324;10.126;2023-02-18T01:25:05;7.30;99.90
18131;DHT22;9191;54.324;10.126;2023-02-18T01:27:32;7.30;99.90
18131;DHT22;9191;54.324;10.126;2023-02-18T01:29:59;7.30;99.90
18131;DHT22;9191;54.324;10.126;2023-02-18T01:32:28;7.30;99.90
18131;DHT22;9191;54.324;10.126;2023-02-18T01:34:56;7.30;99.90
18131;DHT22;9191;54.324;10.126;2023-02-18T01:37:28;7.40;99.90
18131;DHT22;9191;54.324;10.126;2023-02-18T01:39:55;7.40;99.90
18131;DHT22;9191;54.324;10.126;2023-02-18T01:42:28;7.40;99.90
18131;DHT22;9191;54.324;10.126;2023-02-18T01:47:58;7.40;99.90
18131;DHT22;9191;54.324;10.126;2023-02-18T01:50:27;7.30;99.90
18131;DHT22;9191;54.324;10.126;2023-02-18T01:52:56;7.30;99.90
18131;DHT22;9191;54.324;10.126;2023-02-18T01:55:25;7.40;99.90
18131;DHT22;9191;54.324;10.126;2023-02-18T01:57:54;7.30;99.90
18131;DHT22;9191;54.324;10.126;2023-02-18T02:00:24;7.30;99.90
18131;DHT22;9191;54.324;10.126;2023-02-18T02:02:51;7.30;99.90
18131;DHT22;9191;54.324;10.126;2023-02-18T02:05:21;7.30;99.90
18131;DHT22;9191;54.324;10.126;2023-02-18T02:07:49;7.40;99.90
18131;DHT22;9191;54.324;10.126;2023-02-18T02:10:16;7.40;99.90
18131;DHT22;9191;54.324;10.126;2023-02-18T02:12:47;7.40;99.90
18131;DHT22;9191;54.324;10.126;2023-02-18T02:15:25;7.40;99.90
18131;DHT22;9191;54.324;10.126;2023-02-18T02:17:58;7.40;99.90
18131;DHT22;9191;54.324;10.126;2023-02-18T02:26:53;7.40;99.90
18131;DHT22;9191;54.324;10.126;2023-02-18T02:32:41;7.30;99.90
18131;DHT22;9191;54.324;10.126;2023-02-18T02:35:17;7.40;99.90
18131;DHT22;9191;54.324;10.126;2023-02-18T02:37:57;7.30;99.90
18131;DHT22;9191;54.324;10.126;2023-02-18T02:40:30;7.40;99.90
18131;DHT22;9191;54.324;10.126;2023-02-18T02:43:03;7.40;99.90
18131;DHT22;9191;54.324;10.126;2023-02-18T02:45:42;7.40;99.90
18131;DHT22;9191;54.324;10.126;2023-02-18T02:48:18;7.40;99.90
18131;DHT22;9191;54.324;10.126;2023-02-18T02:50:50;7.40;99.90
18131;DHT22;9191;54.324;10.126;2023-02-18T02:53:30;7.40;99.90
18131;DHT22;9191;54.324;10.126;2023-02-18T02:56:01;7.40;99.90
18131;DHT22;9191;54.324;10.126;2023-02-18T02:58:31;7.40;99.90
18131;DHT22;9191;54.324;10.126;2023-02-18T03:01:08;7.40;99.90
18131;DHT22;9191;54.324;10.126;2023-02-18T03:03:52;7.30;99.90
18131;DHT22;9191;54.324;10.126;2023-02-18T03:09:16;7.30;99.90
18131;DHT22;9191;54.324;10.126;2023-02-18T03:11:53;7.20;99.90
18131;DHT22;9191;54.324;10.126;2023-02-18T03:14:26;7.20;99.90
18131;DHT22;9191;54.324;10.126;2023-02-18T03:16:58;7.20;99.90
18131;DHT22;9191;54.324;10.126;2023-02-18T03:19:32;7.10;99.90
18131;DHT22;9191;54.324;10.126;2023-02-18T03:22:04;7.10;99.90
18131;DHT22;9191;54.324;10.126;2023-02-18T03:24:34;7.00;99.90
18131;DHT22;9191;54.324;10.126;2023-02-18T03:27:06;6.90;99.90
18131;DHT22;9191;54.324;10.126;2023-02-18T03:29:34;7.00;99.90
18131;DHT22;9191;54.324;10.126;2023-02-18T03:32:05;7.00;99.90
18131;DHT22;9191;54.324;10.126;2023-02-18T03:34:36;6.90;99.90
18131;DHT22;9191;54.324;10.126;2023-02-18T03:37:05;7.00;99.90
18131;DHT22;9191;54.324;10.126;2023-02-18T03:39:34;7.10;99.90
18131;DHT22;9191;54.324;10.126;2023-02-18T03:42:02;7.10;99.90
18131;DHT22;9191;54.324;10.126;2023-02-18T03:44:30;7.10;99.90
18131;DHT22;9191;54.324;10.126;2023-02-18T03:46:57;7.10;99.90
18131;DHT22;9191;54.324;10.126;2023-02-18T03:49:24;7.10;99.90
18131;DHT22;9191;54.324;10.126;2023-02-18T03:51:51;7.10;99.90
18131;DHT22;9191;54.324;10.126;2023-02-18T03:54:17;7.10;99.90
18131;DHT22;9191;54.324;10.126;2023-02-18T03:56:46;7.10;99.90
18131;DHT22;9191;54.324;10.126;2023-02-18T03:59:13;7.10;99.90
18131;DHT22;9191;54.324;10.126;2023-02-18T04:01:40;7.10;99.90
18131;DHT22;9191;54.324;10.126;2023-02-18T04:04:07;7.10;99.90
18131;DHT22;9191;54.324;10.126;2023-02-18T04:06:34;7.10;99.90
18131;DHT22;9191;54.324;10.126;2023-02-18T04:09:01;7.10;99.90
18131;DHT22;9191;54.324;10.126;2023-02-18T04:11:34;7.10;99.90
18131;DHT22;9191;54.324;10.126;2023-02-18T04:14:03;7.10;99.90
18131;DHT22;9191;54.324;10.126;2023-02-18T04:16:30;7.10;99.90
18131;DHT22;9191;54.324;10.126;2023-02-18T04:18:56;7.20;99.90
18131;DHT22;9191;54.324;10.126;2023-02-18T04:21:23;7.20;99.90
18131;DHT22;9191;54.324;10.126;2023-02-18T04:23:51;7.20;99.90
18131;DHT22;9191;54.324;10.126;2023-02-18T04:26:18;7.30;99.90
18131;DHT22;9191;54.324;10.126;2023-02-18T04:28:45;7.30;99.90
18131;DHT22;9191;54.324;10.126;2023-02-18T04:31:16;7.30;99.90
18131;DHT22;9191;54.324;10.126;2023-02-18T04:33:43;7.30;99.90
18131;DHT22;9191;54.324;10.126;2023-02-18T04:36:10;7.30;99.90
18131;DHT22;9191;54.324;10.126;2023-02-18T04:38:36;7.30;99.90
18131;DHT22;9191;54.324;10.126;2023-02-18T04:41:03;7.40;99.90
18131;DHT22;9191;54.324;10.126;2023-02-18T04:43:31;7.40;99.90
18131;DHT22;9191;54.324;10.126;2023-02-18T04:45:58;7.40;99.90
18131;DHT22;9191;54.324;10.126;2023-02-18T04:48:26;7.40;99.90
18131;DHT22;9191;54.324;10.126;2023-02-18T04:50:53;7.40;99.90
18131;DHT22;9191;54.324;10.126;2023-02-18T04:53:20;7.40;99.90
18131;DHT22;9191;54.324;10.126;2023-02-18T04:55:49;7.40;99.90
18131;DHT22;9191;54.324;10.126;2023-02-18T04:58:16;7.40;99.90
18131;DHT22;9191;54.324;10.126;2023-02-18T05:00:43;7.30;99.90
18131;DHT22;9191;54.324;10.126;2023-02-18T05:03:10;7.40;99.90
18131;DHT22;9191;54.324;10.126;2023-02-18T05:05:39;7.30;99.90
18131;DHT22;9191;54.324;10.126;2023-02-18T05:08:06;7.30;99.90
18131;DHT22;9191;54.324;10.126;2023-02-18T05:10:34;7.30;99.90
18131;DHT22;9191;54.324;10.126;2023-02-18T05:13:00;7.30;99.90
18131;DHT22;9191;54.324;10.126;2023-02-18T05:15:27;7.40;99.90
18131;DHT22;9191;54.324;10.126;2023-02-18T05:17:54;7.40;99.90
18131;DHT22;9191;54.324;10.126;2023-02-18T05:20:21;7.30;99.90
18131;DHT22;9191;54.324;10.126;2023-02-18T05:22:49;7.30;99.90
18131;DHT22;9191;54.324;10.126;2023-02-18T05:25:16;7.30;99.90
18131;DHT22;9191;54.324;10.126;2023-02-18T05:27:43;7.30;99.90
18131;DHT22;9191;54.324;10.126;2023-02-18T05:30:11;7.30;99.90
18131;DHT22;9191;54.324;10.126;2023-02-18T05:32:37;7.30;99.90
18131;DHT22;9191;54.324;10.126;2023-02-18T05:35:05;7.30;99.90
18131;DHT22;9191;54.324;10.126;2023-02-18T05:37:32;7.20;99.90
18131;DHT22;9191;54.324;10.126;2023-02-18T05:40:01;7.20;99.90
18131;DHT22;9191;54.324;10.126;2023-02-18T05:42:27;7.30;99.90
18131;DHT22;9191;54.324;10.126;2023-02-18T05:44:54;7.20;99.90
18131;DHT22;9191;54.324;10.126;2023-02-18T05:47:21;7.10;99.90
18131;DHT22;9191;54.324;10.126;2023-02-18T05:49:48;7.10;99.90
18131;DHT22;9191;54.324;10.126;2023-02-18T05:52:15;7.10;99.90
18131;DHT22;9191;54.324;10.126;2023-02-18T05:54:42;7.10;99.90
18131;DHT22;9191;54.324;10.126;2023-02-18T05:57:12;7.10;99.90
18131;DHT22;9191;54.324;10.126;2023-02-18T05:59:39;7.10;99.90
18131;DHT22;9191;54.324;10.126;2023-02-18T06:02:06;7.10;99.90
18131;DHT22;9191;54.324;10.126;2023-02-18T06:04:33;7.10;99.90
18131;DHT22;9191;54.324;10.126;2023-02-18T06:07:00;7.10;99.90
18131;DHT22;9191;54.324;10.126;2023-02-18T06:09:27;7.10;99.90
18131;DHT22;9191;54.324;10.126;2023-02-18T06:11:53;7.10;99.90
18131;DHT22;9191;54.324;10.126;2023-02-18T06:14:22;7.10;99.90
18131;DHT22;9191;54.324;10.126;2023-02-18T06:16:49;7.00;99.90
18131;DHT22;9191;54.324;10.126;2023-02-18T06:19:15;7.00;99.90
18131;DHT22;9191;54.324;10.126;2023-02-18T06:21:42;7.10;99.90
18131;DHT22;9191;54.324;10.126;2023-02-18T06:24:09;7.10;99.90
18131;DHT22;9191;54.324;10.126;2023-02-18T06:26:36;7.10;99.90
18131;DHT22;9191;54.324;10.126;2023-02-18T06:29:03;7.20;99.90
18131;DHT22;9191;54.324;10.126;2023-02-18T06:31:31;7.10;99.90
18131;DHT22;9191;54.324;10.126;2023-02-18T06:33:58;7.10;99.90
18131;DHT22;9191;54.324;10.126;2023-02-18T06:36:24;6.90;99.90
18131;DHT22;9191;54.324;10.126;2023-02-18T06:38:51;7.00;99.90
18131;DHT22;9191;54.324;10.126;2023-02-18T06:41:20;7.00;99.90
18131;DHT22;9191;54.324;10.126;2023-02-18T06:43:47;7.10;99.90
18131;DHT22;9191;54.324;10.126;2023-02-18T06:46:14;7.10;99.90
18131;DHT22;9191;54.324;10.126;2023-02-18T06:48:42;7.10;99.90
18131;DHT22;9191;54.324;10.126;2023-02-18T06:51:09;7.20;99.90
18131;DHT22;9191;54.324;10.126;2023-02-18T06:53:36;7.10;99.90
18131;DHT22;9191;54.324;10.126;2023-02-18T06:56:03;7.10;99.90
18131;DHT22;9191;54.324;10.126;2023-02-18T06:58:33;7.00;99.90
18131;DHT22;9191;54.324;10.126;2023-02-18T07:00:59;7.00;99.90
18131;DHT22;9191;54.324;10.126;2023-02-18T07:03:29;7.10;99.90
18131;DHT22;9191;54.324;10.126;2023-02-18T07:05:57;7.00;99.90
18131;DHT22;9191;54.324;10.126;2023-02-18T07:08:24;7.00;99.90
18131;DHT22;9191;54.324;10.126;2023-02-18T07:10:51;7.00;99.90
18131;DHT22;9191;54.324;10.126;2023-02-18T07:13:18;6.90;99.90
18131;DHT22;9191;54.324;10.126;2023-02-18T07:15:48;6.90;99.90
18131;DHT22;9191;54.324;10.126;2023-02-18T07:18:14;6.90;99.90
18131;DHT22;9191;54.324;10.126;2023-02-18T07:20:42;6.80;99.90
18131;DHT22;9191;54.324;10.126;2023-02-18T07:23:10;6.90;99.90
18131;DHT22;9191;54.324;10.126;2023-02-18T07:25:37;6.90;99.90
18131;DHT22;9191;54.324;10.126;2023-02-18T07:28:03;6.90;99.90
18131;DHT22;9191;54.324;10.126;2023-02-18T07:30:30;6.90;99.90
18131;DHT22;9191;54.324;10.126;2023-02-18T07:32:57;6.90;99.90
18131;DHT22;9191;54.324;10.126;2023-02-18T07:35:24;7.00;99.90
18131;DHT22;9191;54.324;10.126;2023-02-18T07:37:51;6.90;99.90
18131;DHT22;9191;54.324;10.126;2023-02-18T07:40:20;7.00;99.90
18131;DHT22;9191;54.324;10.126;2023-02-18T07:42:46;7.00;99.90
18131;DHT22;9191;54.324;10.126;2023-02-18T07:45:14;6.90;99.90
18131;DHT22;9191;54.324;10.126;2023-02-18T07:47:41;6.90;99.90
18131;DHT22;9191;54.324;10.126;2023-02-18T07:50:08;6.90;99.90
18131;DHT22;9191;54.324;10.126;2023-02-18T07:52:35;6.90;99.90
18131;DHT22;9191;54.324;10.126;2023-02-18T07:55:02;6.80;99.90
18131;DHT22;9191;54.324;10.126;2023-02-18T07:57:30;6.70;99.90
18131;DHT22;9191;54.324;10.126;2023-02-18T07:59:57;6.70;99.90
18131;DHT22;9191;54.324;10.126;2023-02-18T08:02:25;6.80;99.90
18131;DHT22;9191;54.324;10.126;2023-02-18T08:04:52;6.70;99.90
18131;DHT22;9191;54.324;10.126;2023-02-18T08:07:20;6.80;99.90
18131;DHT22;9191;54.324;10.126;2023-02-18T08:09:48;6.80;99.90
18131;DHT22;9191;54.324;10.126;2023-02-18T08:12:15;6.90;99.90
18131;DHT22;9191;54.324;10.126;2023-02-18T08:14:44;7.00;99.90
18131;DHT22;9191;54.324;10.126;2023-02-18T08:17:10;6.90;99.90
18131;DHT22;9191;54.324;10.126;2023-02-18T08:19:37;7.00;99.90
18131;DHT22;9191;54.324;10.126;2023-02-18T08:22:04;7.00;99.90
18131;DHT22;9191;54.324;10.126;2023-02-18T08:24:31;7.00;99.90
18131;DHT22;9191;54.324;10.126;2023-02-18T08:26:58;6.90;99.90
18131;DHT22;9191;54.324;10.126;2023-02-18T08:29:25;6.90;99.90
18131;DHT22;9191;54.324;10.126;2023-02-18T08:31:53;6.80;99.90
18131;DHT22;9191;54.324;10.126;2023-02-18T08:34:21;6.90;99.90
18131;DHT22;9191;54.324;10.126;2023-02-18T08:36:48;6.80;99.90
18131;DHT22;9191;54.324;10.126;2023-02-18T08:39:15;6.90;99.90
18131;DHT22;9191;54.324;10.126;2023-02-18T08:41:42;6.80;99.90
18131;DHT22;9191;54.324;10.126;2023-02-18T08:44:09;6.80;99.90
18131;DHT22;9191;54.324;10.126;2023-02-18T08:46:36;6.80;99.90
18131;DHT22;9191;54.324;10.126;2023-02-18T08:49:05;6.80;99.90
18131;DHT22;9191;54.324;10.126;2023-02-18T08:51:35;6.70;99.90
18131;DHT22;9191;54.324;10.126;2023-02-18T08:54:02;6.70;99.90
18131;DHT22;9191;54.324;10.126;2023-02-18T08:56:29;6.70;99.90
18131;DHT22;9191;54.324;10.126;2023-02-18T08:58:56;6.70;99.90
18131;DHT22;9191;54.324;10.126;2023-02-18T09:01:23;6.80;99.90
18131;DHT22;9191;54.324;10.126;2023-02-18T09:03:50;6.80;99.90
18131;DHT22;9191;54.324;10.126;2023-02-18T09:06:21;6.90;99.90
18131;DHT22;9191;54.324;10.126;2023-02-18T09:08:51;7.00;99.90
18131;DHT22;9191;54.324;10.126;2023-02-18T09:11:18;7.00;99.90
18131;DHT22;9191;54.324;10.126;2023-02-18T09:13:45;7.20;99.90
18131;DHT22;9191;54.324;10.126;2023-02-18T09:16:14;7.20;99.90
18131;DHT22;9191;54.324;10.126;2023-02-18T09:18:46;7.20;99.90
18131;DHT22;9191;54.324;10.126;2023-02-18T09:21:15;7.20;99.90
18131;DHT22;9191;54.324;10.126;2023-02-18T09:23:49;7.20;99.90
18131;DHT22;9191;54.324;10.126;2023-02-18T09:26:17;7.00;99.90
18131;DHT22;9191;54.324;10.126;2023-02-18T09:28:46;7.00;99.90
18131;DHT22;9191;54.324;10.126;2023-02-18T09:31:15;6.90;99.90
18131;DHT22;9191;54.324;10.126;2023-02-18T09:33:45;6.80;99.90
18131;DHT22;9191;54.324;10.126;2023-02-18T09:36:13;6.70;99.90
18131;DHT22;9191;54.324;10.126;2023-02-18T09:38:40;6.80;99.90
18131;DHT22;9191;54.324;10.126;2023-02-18T09:41:17;6.70;99.90
18131;DHT22;9191;54.324;10.126;2023-02-18T09:43:46;6.70;99.90
18131;DHT22;9191;54.324;10.126;2023-02-18T09:46:19;6.50;99.90
18131;DHT22;9191;54.324;10.126;2023-02-18T09:48:47;6.60;99.90
18131;DHT22;9191;54.324;10.126;2023-02-18T09:51:15;6.50;99.90
18131;DHT22;9191;54.324;10.126;2023-02-18T09:53:43;6.50;99.90
18131;DHT22;9191;54.324;10.126;2023-02-18T09:56:14;6.50;99.90
18131;DHT22;9191;54.324;10.126;2023-02-18T09:58:42;6.50;99.90
18131;DHT22;9191;54.324;10.126;2023-02-18T10:01:10;6.40;99.90
18131;DHT22;9191;54.324;10.126;2023-02-18T10:03:41;6.30;99.90
18131;DHT22;9191;54.324;10.126;2023-02-18T10:06:11;6.20;99.90
18131;DHT22;9191;54.324;10.126;2023-02-18T10:08:43;6.20;99.90
18131;DHT22;9191;54.324;10.126;2023-02-18T10:11:12;6.20;99.90
18131;DHT22;9191;54.324;10.126;2023-02-18T10:13:41;6.10;99.90
18131;DHT22;9191;54.324;10.126;2023-02-18T10:16:08;6.10;99.90
18131;DHT22;9191;54.324;10.126;2023-02-18T10:18:38;6.20;99.90
18131;DHT22;9191;54.324;10.126;2023-02-18T10:21:07;6.20;99.90
18131;DHT22;9191;54.324;10.126;2023-02-18T10:23:37;6.20;99.90
18131;DHT22;9191;54.324;10.126;2023-02-18T10:26:08;6.10;99.90
18131;DHT22;9191;54.324;10.126;2023-02-18T10:28:37;6.20;99.90
18131;DHT22;9191;54.324;10.126;2023-02-18T10:31:07;6.20;99.90
18131;DHT22;9191;54.324;10.126;2023-02-18T10:33:40;6.30;99.90
18131;DHT22;9191;54.324;10.126;2023-02-18T10:36:21;6.30;99.90
18131;DHT22;9191;54.324;10.126;2023-02-18T10:39:05;6.10;99.90
18131;DHT22;9191;54.324;10.126;2023-02-18T10:41:42;6.20;99.90
18131;DHT22;9191;54.324;10.126;2023-02-18T10:44:14;6.20;99.90
18131;DHT22;9191;54.324;10.126;2023-02-18T10:46:46;6.20;99.90
18131;DHT22;9191;54.324;10.126;2023-02-18T10:49:34;6.10;99.90
18131;DHT22;9191;54.324;10.126;2023-02-18T10:52:13;6.20;99.90
18131;DHT22;9191;54.324;10.126;2023-02-18T10:54:49;6.20;99.90
18131;DHT22;9191;54.324;10.126;2023-02-18T10:57:18;6.30;99.90
18131;DHT22;9191;54.324;10.126;2023-02-18T10:59:54;6.30;99.90
18131;DHT22;9191;54.324;10.126;2023-02-18T11:02:29;6.30;99.90
18131;DHT22;9191;54.324;10.126;2023-02-18T11:04:59;6.30;99.90
18131;DHT22;9191;54.324;10.126;2023-02-18T11:07:33;6.20;99.90
18131;DHT22;9191;54.324;10.126;2023-02-18T11:10:07;6.30;99.90
18131;DHT22;9191;54.324;10.126;2023-02-18T11:12:42;6.50;99.90
18131;DHT22;9191;54.324;10.126;2023-02-18T11:15:19;6.40;99.90
18131;DHT22;9191;54.324;10.126;2023-02-18T11:17:48;6.50;99.90
18131;DHT22;9191;54.324;10.126;2023-02-18T11:20:25;6.50;99.90
18131;DHT22;9191;54.324;10.126;2023-02-18T11:22:57;6.40;99.90
18131;DHT22;9191;54.324;10.126;2023-02-18T11:25:26;6.40;99.90
18131;DHT22;9191;54.324;10.126;2023-02-18T11:27:57;6.50;99.90
18131;DHT22;9191;54.324;10.126;2023-02-18T11:30:30;6.50;99.90
18131;DHT22;9191;54.324;10.126;2023-02-18T11:32:58;6.50;99.90
18131;DHT22;9191;54.324;10.126;2023-02-18T11:35:29;6.40;99.90
18131;DHT22;9191;54.324;10.126;2023-02-18T11:37:58;6.30;99.90
18131;DHT22;9191;54.324;10.126;2023-02-18T11:40:30;6.30;99.90
18131;DHT22;9191;54.324;10.126;2023-02-18T11:43:05;6.30;99.90
18131;DHT22;9191;54.324;10.126;2023-02-18T11:45:34;6.30;99.90
18131;DHT22;9191;54.324;10.126;2023-02-18T11:48:06;6.30;99.90
18131;DHT22;9191;54.324;10.126;2023-02-18T11:50:33;6.40;99.90
18131;DHT22;9191;54.324;10.126;2023-02-18T11:53:25;6.50;99.90
18131;DHT22;9191;54.324;10.126;2023-02-18T11:55:54;6.50;99.90
18131;DHT22;9191;54.324;10.126;2023-02-18T11:58:21;6.30;99.90
18131;DHT22;9191;54.324;10.126;2023-02-18T12:00:54;6.30;99.90
18131;DHT22;9191;54.324;10.126;2023-02-18T12:03:27;6.30;99.90
18131;DHT22;9191;54.324;10.126;2023-02-18T12:05:58;6.30;99.90
18131;DHT22;9191;54.324;10.126;2023-02-18T12:08:27;6.10;99.90
18131;DHT22;9191;54.324;10.126;2023-02-18T12:10:58;6.10;99.90
18131;DHT22;9191;54.324;10.126;2023-02-18T12:13:30;6.10;99.90
18131;DHT22;9191;54.324;10.126;2023-02-18T12:16:08;6.00;99.90
18131;DHT22;9191;54.324;10.126;2023-02-18T12:18:51;5.90;99.90
18131;DHT22;9191;54.324;10.126;2023-02-18T12:21:32;5.90;99.90
18131;DHT22;9191;54.324;10.126;2023-02-18T12:24:09;5.80;99.90
18131;DHT22;9191;54.324;10.126;2023-02-18T12:26:46;5.70;99.90
18131;DHT22;9191;54.324;10.126;2023-02-18T12:29:31;5.60;99.90
18131;DHT22;9191;54.324;10.126;2023-02-18T12:32:19;5.40;99.90
18131;DHT22;9191;54.324;10.126;2023-02-18T12:35:04;5.20;99.90
18131;DHT22;9191;54.324;10.126;2023-02-18T12:37:56;5.30;99.90
18131;DHT22;9191;54.324;10.126;2023-02-18T12:40:53;5.20;99.90
18131;DHT22;9191;54.324;10.126;2023-02-18T12:43:26;5.40;99.90
18131;DHT22;9191;54.324;10.126;2023-02-18T12:46:08;5.30;99.90
18131;DHT22;9191;54.324;10.126;2023-02-18T12:49:00;5.10;99.90
18131;DHT22;9191;54.324;10.126;2023-02-18T12:51:41;5.20;99.90
18131;DHT22;9191;54.324;10.126;2023-02-18T12:54:22;5.10;99.90
18131;DHT22;9191;54.324;10.126;2023-02-18T12:57:03;5.10;99.90
18131;DHT22;9191;54.324;10.126;2023-02-18T13:00:00;5.10;99.90
18131;DHT22;9191;54.324;10.126;2023-02-18T13:02:45;5.20;99.90
18131;DHT22;9191;54.324;10.126;2023-02-18T13:05:27;5.30;99.90
18131;DHT22;9191;54.324;10.126;2023-02-18T13:08:02;5.20;99.90
18131;DHT22;9191;54.324;10.126;2023-02-18T13:11:02;5.30;99.90
18131;DHT22;9191;54.324;10.126;2023-02-18T13:13:32;5.30;99.90
18131;DHT22;9191;54.324;10.126;2023-02-18T13:16:02;5.40;99.90
18131;DHT22;9191;54.324;10.126;2023-02-18T13:18:30;5.50;99.90
18131;DHT22;9191;54.324;10.126;2023-02-18T13:21:04;5.60;99.90
18131;DHT22;9191;54.324;10.126;2023-02-18T13:23:32;5.70;99.90
18131;DHT22;9191;54.324;10.126;2023-02-18T13:26:01;5.90;99.90
18131;DHT22;9191;54.324;10.126;2023-02-18T13:28:36;6.00;99.90
18131;DHT22;9191;54.324;10.126;2023-02-18T13:31:22;5.90;99.90
18131;DHT22;9191;54.324;10.126;2023-02-18T13:33:57;5.80;99.90
18131;DHT22;9191;54.324;10.126;2023-02-18T13:36:40;5.90;99.90
18131;DHT22;9191;54.324;10.126;2023-02-18T13:39:12;5.80;99.90
18131;DHT22;9191;54.324;10.126;2023-02-18T13:41:43;5.90;99.90
18131;DHT22;9191;54.324;10.126;2023-02-18T13:47:10;5.80;99.90
18131;DHT22;9191;54.324;10.126;2023-02-18T13:49:39;5.90;99.90
18131;DHT22;9191;54.324;10.126;2023-02-18T13:52:18;5.90;99.90
18131;DHT22;9191;54.324;10.126;2023-02-18T13:54:46;5.90;99.90
18131;DHT22;9191;54.324;10.126;2023-02-18T13:57:18;6.00;99.90
18131;DHT22;9191;54.324;10.126;2023-02-18T13:59:47;6.00;99.90
18131;DHT22;9191;54.324;10.126;2023-02-18T14:02:32;5.70;99.90
18131;DHT22;9191;54.324;10.126;2023-02-18T14:05:19;5.80;99.90
18131;DHT22;9191;54.324;10.126;2023-02-18T14:07:49;5.70;99.90
18131;DHT22;9191;54.324;10.126;2023-02-18T14:10:32;5.60;99.90
18131;DHT22;9191;54.324;10.126;2023-02-18T14:13:18;5.70;99.90
18131;DHT22;9191;54.324;10.126;2023-02-18T14:15:58;5.90;99.90
18131;DHT22;9191;54.324;10.126;2023-02-18T14:21:19;5.70;99.90
18131;DHT22;9191;54.324;10.126;2023-02-18T14:23:59;5.90;99.90
18131;DHT22;9191;54.324;10.126;2023-02-18T14:26:30;6.10;99.90
18131;DHT22;9191;54.324;10.126;2023-02-18T14:29:05;6.40;99.90
18131;DHT22;9191;54.324;10.126;2023-02-18T14:31:34;6.10;99.90
18131;DHT22;9191;54.324;10.126;2023-02-18T14:34:35;6.20;99.90
18131;DHT22;9191;54.324;10.126;2023-02-18T14:40:20;6.20;99.90
18131;DHT22;9191;54.324;10.126;2023-02-18T14:42:55;6.10;99.90
18131;DHT22;9191;54.324;10.126;2023-02-18T14:45:39;6.10;99.90
18131;DHT22;9191;54.324;10.126;2023-02-18T14:48:24;6.10;99.90
18131;DHT22;9191;54.324;10.126;2023-02-18T14:50:53;6.00;99.90
18131;DHT22;9191;54.324;10.126;2023-02-18T14:53:23;5.90;99.90
18131;DHT22;9191;54.324;10.126;2023-02-18T14:55:58;5.80;99.90
18131;DHT22;9191;54.324;10.126;2023-02-18T14:58:29;5.80;99.90
18131;DHT22;9191;54.324;10.126;2023-02-18T15:00:58;5.70;99.90
18131;DHT22;9191;54.324;10.126;2023-02-18T15:03:32;5.70;99.90
18131;DHT22;9191;54.324;10.126;2023-02-18T15:05:59;5.80;99.90
18131;DHT22;9191;54.324;10.126;2023-02-18T15:08:26;5.80;99.90
18131;DHT22;9191;54.324;10.126;2023-02-18T15:11:05;5.90;99.90
18131;DHT22;9191;54.324;10.126;2023-02-18T15:13:35;5.90;99.90
18131;DHT22;9191;54.324;10.126;2023-02-18T15:16:05;5.80;99.90
18131;DHT22;9191;54.324;10.126;2023-02-18T15:18:35;5.70;99.90
18131;DHT22;9191;54.324;10.126;2023-02-18T15:21:04;5.60;99.90
18131;DHT22;9191;54.324;10.126;2023-02-18T15:23:34;5.70;99.90
18131;DHT22;9191;54.324;10.126;2023-02-18T15:26:05;5.80;99.90
18131;DHT22;9191;54.324;10.126;2023-02-18T15:28:38;5.90;99.90
18131;DHT22;9191;54.324;10.126;2023-02-18T15:31:08;5.70;99.90
18131;DHT22;9191;54.324;10.126;2023-02-18T15:33:42;5.80;99.90
18131;DHT22;9191;54.324;10.126;2023-02-18T15:36:13;5.70;99.90
18131;DHT22;9191;54.324;10.126;2023-02-18T15:38:40;5.60;99.90
18131;DHT22;9191;54.324;10.126;2023-02-18T15:41:11;5.50;99.90
18131;DHT22;9191;54.324;10.126;2023-02-18T15:43:53;5.40;99.90
18131;DHT22;9191;54.324;10.126;2023-02-18T15:46:22;5.40;99.90
18131;DHT22;9191;54.324;10.126;2023-02-18T15:48:52;5.30;99.90
18131;DHT22;9191;54.324;10.126;2023-02-18T15:51:22;5.20;99.90
18131;DHT22;9191;54.324;10.126;2023-02-18T15:53:56;5.30;99.90
18131;DHT22;9191;54.324;10.126;2023-02-18T15:56:28;5.30;99.90
18131;DHT22;9191;54.324;10.126;2023-02-18T15:59:06;5.30;99.90
18131;DHT22;9191;54.324;10.126;2023-02-18T16:01:33;5.50;99.90
18131;DHT22;9191;54.324;10.126;2023-02-18T16:04:01;5.40;99.90
18131;DHT22;9191;54.324;10.126;2023-02-18T16:06:29;5.40;99.90
18131;DHT22;9191;54.324;10.126;2023-02-18T16:08:58;5.50;99.90
18131;DHT22;9191;54.324;10.126;2023-02-18T16:11:30;5.60;99.90
18131;DHT22;9191;54.324;10.126;2023-02-18T16:13:59;5.50;99.90
18131;DHT22;9191;54.324;10.126;2023-02-18T16:16:29;5.50;99.90
18131;DHT22;9191;54.324;10.126;2023-02-18T16:18:56;5.50;99.90
18131;DHT22;9191;54.324;10.126;2023-02-18T16:21:29;5.40;99.90
18131;DHT22;9191;54.324;10.126;2023-02-18T16:24:02;5.40;99.90
18131;DHT22;9191;54.324;10.126;2023-02-18T16:26:32;5.40;99.90
18131;DHT22;9191;54.324;10.126;2023-02-18T16:29:09;5.40;99.90
18131;DHT22;9191;54.324;10.126;2023-02-18T16:31:37;5.40;99.90